sensor_id;sensor_type;location;lat;lon;timestamp;P1;durP1;ratioP1;P2;durP2;ratioP2
21517;SDS011;61765;45.794;24.150;2023-02-24T00:05:31;6.20;;;3.42;;
21517;SDS011;61765;45.794;24.150;2023-02-24T00:13:43;6.90;;;3.65;;
21517;SDS011;61765;45.794;24.150;2023-02-24T00:21:50;5.22;;;3.70;;
21517;SDS011;61765;45.794;24.150;2023-02-24T00:29:59;7.78;;;4.32;;
21517;SDS011;61765;45.794;24.150;2023-02-24T00:38:06;6.63;;;3.50;;
21517;SDS011;61765;45.794;24.150;2023-02-24T00:46:17;8.48;;;3.60;;
21517;SDS011;61765;45.794;24.150;2023-02-24T00:54:23;6.63;;;3.42;;
21517;SDS011;61765;45.794;24.150;2023-02-24T01:02:32;6.43;;;3.60;;
21517;SDS011;61765;45.794;24.150;2023-02-24T01:10:38;6.57;;;3.80;;
21517;SDS011;61765;45.794;24.150;2023-02-24T01:19:07;6.20;;;4.32;;
21517;SDS011;61765;45.794;24.150;2023-02-24T01:27:15;6.45;;;4.15;;
21517;SDS011;61765;45.794;24.150;2023-02-24T01:35:24;6.65;;;4.18;;
21517;SDS011;61765;45.794;24.150;2023-02-24T01:43:30;23.20;;;11.95;;
21517;SDS011;61765;45.794;24.150;2023-02-24T01:51:40;27.60;;;16.13;;
21517;SDS011;61765;45.794;24.150;2023-02-24T01:59:50;30.95;;;18.45;;
21517;SDS011;61765;45.794;24.150;2023-02-24T02:08:01;31.60;;;17.83;;
21517;SDS011;61765;45.794;24.150;2023-02-24T02:24:47;35.45;;;19.83;;
21517;SDS011;61765;45.794;24.150;2023-02-24T02:33:04;37.97;;;19.88;;
21517;SDS011;61765;45.794;24.150;2023-02-24T02:41:39;42.45;;;22.33;;
21517;SDS011;61765;45.794;24.150;2023-02-24T02:49:51;33.35;;;17.77;;
21517;SDS011;61765;45.794;24.150;2023-02-24T02:58:04;33.83;;;19.02;;
21517;SDS011;61765;45.794;24.150;2023-02-24T03:06:19;34.25;;;19.85;;
21517;SDS011;61765;45.794;24.150;2023-02-24T03:14:31;30.33;;;18.55;;
21517;SDS011;61765;45.794;24.150;2023-02-24T03:22:43;34.30;;;19.55;;
21517;SDS011;61765;45.794;24.150;2023-02-24T03:30:58;33.63;;;19.00;;
21517;SDS011;61765;45.794;24.150;2023-02-24T03:39:08;30.40;;;17.70;;
21517;SDS011;61765;45.794;24.150;2023-02-24T03:47:29;30.35;;;16.48;;
21517;SDS011;61765;45.794;24.150;2023-02-24T03:55:40;28.63;;;16.20;;
21517;SDS011;61765;45.794;24.150;2023-02-24T04:03:59;23.80;;;14.60;;
21517;SDS011;61765;45.794;24.150;2023-02-24T04:12:25;28.40;;;14.98;;
21517;SDS011;61765;45.794;24.150;2023-02-24T04:20:40;25.83;;;14.20;;
21517;SDS011;61765;45.794;24.150;2023-02-24T04:28:50;27.33;;;14.32;;
21517;SDS011;61765;45.794;24.150;2023-02-24T04:37:00;27.88;;;15.95;;
21517;SDS011;61765;45.794;24.150;2023-02-24T04:45:07;26.05;;;15.35;;
21517;SDS011;61765;45.794;24.150;2023-02-24T04:53:16;28.35;;;16.58;;
21517;SDS011;61765;45.794;24.150;2023-02-24T05:01:27;28.67;;;15.88;;
21517;SDS011;61765;45.794;24.150;2023-02-24T05:09:35;28.58;;;15.77;;
21517;SDS011;61765;45.794;24.150;2023-02-24T05:17:41;26.52;;;14.32;;
21517;SDS011;61765;45.794;24.150;2023-02-24T05:25:49;26.63;;;15.05;;
21517;SDS011;61765;45.794;24.150;2023-02-24T05:33:56;26.92;;;15.70;;
21517;SDS011;61765;45.794;24.150;2023-02-24T05:42:06;27.50;;;15.68;;
21517;SDS011;61765;45.794;24.150;2023-02-24T05:50:12;26.23;;;15.32;;
21517;SDS011;61765;45.794;24.150;2023-02-24T05:58:20;31.60;;;16.00;;
21517;SDS011;61765;45.794;24.150;2023-02-24T06:06:29;27.55;;;16.33;;
21517;SDS011;61765;45.794;24.150;2023-02-24T06:14:41;27.67;;;16.25;;
21517;SDS011;61765;45.794;24.150;2023-02-24T06:22:47;29.95;;;16.60;;
21517;SDS011;61765;45.794;24.150;2023-02-24T06:31:01;29.88;;;17.35;;
21517;SDS011;61765;45.794;24.150;2023-02-24T06:39:08;32.57;;;17.23;;
21517;SDS011;61765;45.794;24.150;2023-02-24T06:47:17;29.48;;;15.52;;
21517;SDS011;61765;45.794;24.150;2023-02-24T06:55:23;27.67;;;14.70;;
21517;SDS011;61765;45.794;24.150;2023-02-24T07:03:31;24.80;;;14.13;;
21517;SDS011;61765;45.794;24.150;2023-02-24T07:11:48;22.55;;;13.23;;
21517;SDS011;61765;45.794;24.150;2023-02-24T07:19:59;22.33;;;13.20;;
21517;SDS011;61765;45.794;24.150;2023-02-24T07:28:12;19.30;;;11.00;;
21517;SDS011;61765;45.794;24.150;2023-02-24T07:36:22;29.75;;;15.13;;
21517;SDS011;61765;45.794;24.150;2023-02-24T07:44:31;34.22;;;20.77;;
21517;SDS011;61765;45.794;24.150;2023-02-24T07:52:39;40.83;;;20.85;;
21517;SDS011;61765;45.794;24.150;2023-02-24T08:00:44;31.08;;;17.73;;
21517;SDS011;61765;45.794;24.150;2023-02-24T08:09:03;26.90;;;15.73;;
21517;SDS011;61765;45.794;24.150;2023-02-24T08:17:21;30.58;;;17.15;;
21517;SDS011;61765;45.794;24.150;2023-02-24T08:25:30;43.80;;;21.27;;
21517;SDS011;61765;45.794;24.150;2023-02-24T08:33:39;49.15;;;25.98;;
21517;SDS011;61765;45.794;24.150;2023-02-24T08:41:48;42.10;;;24.50;;
21517;SDS011;61765;45.794;24.150;2023-02-24T08:49:55;43.00;;;24.13;;
21517;SDS011;61765;45.794;24.150;2023-02-24T08:58:05;39.17;;;21.75;;
21517;SDS011;61765;45.794;24.150;2023-02-24T09:06:16;37.42;;;21.05;;
21517;SDS011;61765;45.794;24.150;2023-02-24T09:14:29;36.38;;;20.00;;
21517;SDS011;61765;45.794;24.150;2023-02-24T09:22:38;33.22;;;19.83;;
21517;SDS011;61765;45.794;24.150;2023-02-24T09:31:00;35.72;;;18.75;;
21517;SDS011;61765;45.794;24.150;2023-02-24T09:39:06;28.05;;;15.88;;
21517;SDS011;61765;45.794;24.150;2023-02-24T09:47:18;30.95;;;18.83;;
21517;SDS011;61765;45.794;24.150;2023-02-24T09:55:41;32.13;;;17.73;;
21517;SDS011;61765;45.794;24.150;2023-02-24T10:04:05;29.58;;;16.38;;
21517;SDS011;61765;45.794;24.150;2023-02-24T10:12:22;31.70;;;18.40;;
21517;SDS011;61765;45.794;24.150;2023-02-24T10:20:37;24.25;;;14.23;;
21517;SDS011;61765;45.794;24.150;2023-02-24T10:28:52;34.22;;;15.23;;
21517;SDS011;61765;45.794;24.150;2023-02-24T10:37:11;23.40;;;14.23;;
21517;SDS011;61765;45.794;24.150;2023-02-24T10:45:29;20.98;;;12.95;;
21517;SDS011;61765;45.794;24.150;2023-02-24T10:53:49;23.70;;;13.20;;
21517;SDS011;61765;45.794;24.150;2023-02-24T11:02:15;22.33;;;14.38;;
21517;SDS011;61765;45.794;24.150;2023-02-24T11:10:35;29.80;;;16.33;;
21517;SDS011;61765;45.794;24.150;2023-02-24T11:18:54;29.23;;;16.67;;
21517;SDS011;61765;45.794;24.150;2023-02-24T11:27:03;28.75;;;17.45;;
21517;SDS011;61765;45.794;24.150;2023-02-24T11:35:10;34.80;;;18.83;;
21517;SDS011;61765;45.794;24.150;2023-02-24T11:43:24;27.90;;;15.45;;
21517;SDS011;61765;45.794;24.150;2023-02-24T11:51:33;23.48;;;12.80;;
21517;SDS011;61765;45.794;24.150;2023-02-24T11:59:45;16.80;;;10.50;;
21517;SDS011;61765;45.794;24.150;2023-02-24T12:07:55;16.40;;;10.65;;
21517;SDS011;61765;45.794;24.150;2023-02-24T12:16:09;16.08;;;9.05;;
21517;SDS011;61765;45.794;24.150;2023-02-24T12:24:18;14.33;;;9.33;;
21517;SDS011;61765;45.794;24.150;2023-02-24T12:32:29;14.18;;;9.18;;
21517;SDS011;61765;45.794;24.150;2023-02-24T12:40:48;16.10;;;11.10;;
21517;SDS011;61765;45.794;24.150;2023-02-24T12:49:16;14.77;;;9.27;;
21517;SDS011;61765;45.794;24.150;2023-02-24T12:57:34;14.27;;;9.75;;
21517;SDS011;61765;45.794;24.150;2023-02-24T13:05:50;12.98;;;9.35;;
21517;SDS011;61765;45.794;24.150;2023-02-24T13:14:01;11.65;;;8.13;;
21517;SDS011;61765;45.794;24.150;2023-02-24T13:22:22;15.13;;;9.10;;
21517;SDS011;61765;45.794;24.150;2023-02-24T13:38:50;14.25;;;8.32;;
21517;SDS011;61765;45.794;24.150;2023-02-24T13:47:15;16.17;;;9.68;;
21517;SDS011;61765;45.794;24.150;2023-02-24T13:55:48;14.20;;;9.23;;
21517;SDS011;61765;45.794;24.150;2023-02-24T14:04:04;16.85;;;9.63;;
21517;SDS011;61765;45.794;24.150;2023-02-24T14:12:20;17.17;;;9.88;;
21517;SDS011;61765;45.794;24.150;2023-02-24T14:20:30;15.40;;;9.00;;
21517;SDS011;61765;45.794;24.150;2023-02-24T14:28:39;16.58;;;8.55;;
21517;SDS011;61765;45.794;24.150;2023-02-24T14:36:45;17.08;;;10.43;;
21517;SDS011;61765;45.794;24.150;2023-02-24T14:44:56;13.30;;;8.88;;
21517;SDS011;61765;45.794;24.150;2023-02-24T14:53:02;16.52;;;8.90;;
21517;SDS011;61765;45.794;24.150;2023-02-24T15:01:19;14.40;;;8.85;;
21517;SDS011;61765;45.794;24.150;2023-02-24T15:09:28;12.07;;;7.10;;
21517;SDS011;61765;45.794;24.150;2023-02-24T15:17:41;10.68;;;7.40;;
21517;SDS011;61765;45.794;24.150;2023-02-24T15:25:47;16.25;;;6.93;;
21517;SDS011;61765;45.794;24.150;2023-02-24T15:33:56;14.13;;;7.68;;
21517;SDS011;61765;45.794;24.150;2023-02-24T15:42:05;18.58;;;8.32;;
21517;SDS011;61765;45.794;24.150;2023-02-24T15:50:15;23.58;;;12.75;;
21517;SDS011;61765;45.794;24.150;2023-02-24T15:58:21;31.77;;;15.20;;
21517;SDS011;61765;45.794;24.150;2023-02-24T16:06:29;16.58;;;8.20;;
21517;SDS011;61765;45.794;24.150;2023-02-24T16:14:36;15.00;;;9.07;;
21517;SDS011;61765;45.794;24.150;2023-02-24T16:22:45;12.52;;;8.38;;
21517;SDS011;61765;45.794;24.150;2023-02-24T16:30:50;16.85;;;9.40;;
21517;SDS011;61765;45.794;24.150;2023-02-24T16:38:59;19.08;;;10.30;;
21517;SDS011;61765;45.794;24.150;2023-02-24T16:47:06;31.23;;;16.27;;
21517;SDS011;61765;45.794;24.150;2023-02-24T16:55:19;22.17;;;13.02;;
21517;SDS011;61765;45.794;24.150;2023-02-24T17:03:26;17.92;;;10.50;;
21517;SDS011;61765;45.794;24.150;2023-02-24T17:11:37;19.33;;;10.60;;
21517;SDS011;61765;45.794;24.150;2023-02-24T17:19:42;19.13;;;10.20;;
21517;SDS011;61765;45.794;24.150;2023-02-24T17:27:51;22.02;;;11.38;;
21517;SDS011;61765;45.794;24.150;2023-02-24T17:35:57;20.85;;;11.35;;
21517;SDS011;61765;45.794;24.150;2023-02-24T17:44:05;23.60;;;12.85;;
21517;SDS011;61765;45.794;24.150;2023-02-24T17:52:10;19.00;;;11.40;;
21517;SDS011;61765;45.794;24.150;2023-02-24T18:00:19;25.95;;;14.18;;
21517;SDS011;61765;45.794;24.150;2023-02-24T18:08:24;21.45;;;13.43;;
21517;SDS011;61765;45.794;24.150;2023-02-24T18:16:33;24.50;;;13.18;;
21517;SDS011;61765;45.794;24.150;2023-02-24T18:24:39;23.05;;;14.35;;
21517;SDS011;61765;45.794;24.150;2023-02-24T18:32:47;32.05;;;19.23;;
21517;SDS011;61765;45.794;24.150;2023-02-24T18:40:56;30.20;;;17.38;;
21517;SDS011;61765;45.794;24.150;2023-02-24T18:49:06;24.65;;;14.65;;
21517;SDS011;61765;45.794;24.150;2023-02-24T18:57:18;28.38;;;17.00;;
21517;SDS011;61765;45.794;24.150;2023-02-24T19:05:29;28.75;;;16.85;;
21517;SDS011;61765;45.794;24.150;2023-02-24T19:13:39;30.95;;;17.95;;
21517;SDS011;61765;45.794;24.150;2023-02-24T19:21:48;26.05;;;14.40;;
21517;SDS011;61765;45.794;24.150;2023-02-24T19:29:53;25.58;;;14.68;;
21517;SDS011;61765;45.794;24.150;2023-02-24T19:38:06;42.17;;;20.17;;
21517;SDS011;61765;45.794;24.150;2023-02-24T19:46:12;36.47;;;17.15;;
21517;SDS011;61765;45.794;24.150;2023-02-24T19:54:29;34.53;;;17.20;;
21517;SDS011;61765;45.794;24.150;2023-02-24T20:02:35;36.63;;;17.45;;
21517;SDS011;61765;45.794;24.150;2023-02-24T20:10:46;31.98;;;16.48;;
21517;SDS011;61765;45.794;24.150;2023-02-24T20:19:02;26.92;;;14.70;;
21517;SDS011;61765;45.794;24.150;2023-02-24T20:27:12;28.13;;;15.50;;
21517;SDS011;61765;45.794;24.150;2023-02-24T20:35:19;26.10;;;15.63;;
21517;SDS011;61765;45.794;24.150;2023-02-24T20:43:29;27.95;;;16.23;;
21517;SDS011;61765;45.794;24.150;2023-02-24T20:51:35;25.45;;;15.43;;
21517;SDS011;61765;45.794;24.150;2023-02-24T20:59:43;22.77;;;14.27;;
21517;SDS011;61765;45.794;24.150;2023-02-24T21:08:03;24.02;;;15.25;;
21517;SDS011;61765;45.794;24.150;2023-02-24T21:16:14;28.20;;;16.50;;
21517;SDS011;61765;45.794;24.150;2023-02-24T21:24:21;26.38;;;15.32;;
21517;SDS011;61765;45.794;24.150;2023-02-24T21:32:29;25.92;;;15.65;;
21517;SDS011;61765;45.794;24.150;2023-02-24T21:40:34;28.00;;;15.63;;
21517;SDS011;61765;45.794;24.150;2023-02-24T21:48:44;25.02;;;14.27;;
21517;SDS011;61765;45.794;24.150;2023-02-24T21:56:49;25.08;;;14.48;;
21517;SDS011;61765;45.794;24.150;2023-02-24T22:04:57;24.52;;;15.05;;
21517;SDS011;61765;45.794;24.150;2023-02-24T22:13:03;23.55;;;14.30;;
21517;SDS011;61765;45.794;24.150;2023-02-24T22:21:11;27.05;;;14.52;;
21517;SDS011;61765;45.794;24.150;2023-02-24T22:29:19;23.35;;;13.73;;
21517;SDS011;61765;45.794;24.150;2023-02-24T22:37:28;26.55;;;15.18;;
21517;SDS011;61765;45.794;24.150;2023-02-24T22:45:33;23.75;;;14.30;;
21517;SDS011;61765;45.794;24.150;2023-02-24T22:53:43;21.88;;;13.15;;
21517;SDS011;61765;45.794;24.150;2023-02-24T23:01:50;20.23;;;11.70;;
21517;SDS011;61765;45.794;24.150;2023-02-24T23:09:58;20.27;;;11.80;;
21517;SDS011;61765;45.794;24.150;2023-02-24T23:18:03;22.83;;;12.65;;
21517;SDS011;61765;45.794;24.150;2023-02-24T23:26:12;23.10;;;13.20;;
21517;SDS011;61765;45.794;24.150;2023-02-24T23:34:18;28.85;;;16.33;;
21517;SDS011;61765;45.794;24.150;2023-02-24T23:42:27;32.97;;;19.02;;
21517;SDS011;61765;45.794;24.150;2023-02-24T23:50:32;35.20;;;19.42;;
21517;SDS011;61765;45.794;24.150;2023-02-24T23:58:43;32.58;;;18.58;;
